Time;durP1;ratioP1;P1;durP2;ratioP2;P2;SDS_P1;SDS_P2;PMS_P1;PMS_P2;Temp;Humidity;BMP_temperature;BMP_pressure;BME280_temperature;BME280_humidity;BME280_pressure;Samples;Min_cycle;Max_cycle;Signal;HPM_P1;HPM_P2
2023/01/26 00:01:18;;;;;;;14.80;10.40;;;;;;;-0.28;100.00;100865.41;104365;1257;72574;-67
2023/01/26 00:03:47;;;;;;;18.80;13.40;;;;;;;-0.27;100.00;100866.80;104769;1254;60586;-68
2023/01/26 00:06:18;;;;;;;21.90;14.70;;;;;;;-0.23;100.00;100863.27;104591;1267;59719;-61
2023/01/26 00:08:48;;;;;;;25.60;16.10;;;;;;;-0.15;100.00;100856.36;104411;1254;72324;-64
2023/01/26 00:11:18;;;;;;;22.20;15.00;;;;;;;-0.12;100.00;100857.61;104772;1257;68976;-66
2023/01/26 00:13:51;;;;;;;19.10;14.20;;;;;;;-0.13;100.00;100857.10;104804;1251;71483;-65
2023/01/26 00:16:20;;;;;;;18.10;13.30;;;;;;;-0.11;100.00;100852.15;104309;1264;61579;-65
2023/01/26 00:18:48;;;;;;;18.50;13.80;;;;;;;-0.10;100.00;100858.54;104328;1256;59726;-65
2023/01/26 00:21:19;;;;;;;21.10;14.20;;;;;;;-0.06;100.00;100855.02;104333;1254;73210;-66
2023/01/26 00:23:47;;;;;;;24.30;17.10;;;;;;;0.03;100.00;100856.36;104330;1255;69663;-65
2023/01/26 06:20:13;;;;;;;27.00;15.90;;;;;;;-1.54;100.00;100690.50;103486;1268;61213;-61
2023/01/26 06:22:44;;;;;;;32.10;19.80;;;;;;;-1.37;100.00;100694.67;103612;1272;59331;-63
2023/01/26 06:25:11;;;;;;;33.30;21.70;;;;;;;-1.16;100.00;100692.71;103421;1273;71722;-66
2023/01/26 06:27:40;;;;;;;34.40;21.00;;;;;;;-0.97;100.00;100687.44;103384;1276;297455;-62
2023/01/26 06:30:14;;;;;;;33.40;21.30;;;;;;;-0.83;100.00;100681.88;103853;1269;72753;-61
2023/01/26 06:32:41;;;;;;;37.40;22.30;;;;;;;-0.72;100.00;100679.52;103744;1266;59541;-67
2023/01/26 06:35:08;;;;;;;32.50;21.60;;;;;;;-0.64;100.00;100677.79;103982;1263;59358;-70
2023/01/26 06:37:36;;;;;;;34.00;21.60;;;;;;;-0.57;100.00;100679.30;103817;1266;72407;-68
2023/01/26 06:40:04;;;;;;;33.70;21.40;;;;;;;-0.49;100.00;100683.23;103702;1280;70868;-68
2023/01/26 06:42:31;;;;;;;;;;;;;;;-0.41;100.00;100689.94;103731;1282;72161;-63
2023/01/26 06:44:59;;;;;;;32.30;21.20;;;;;;;-0.35;100.00;100691.58;103858;1279;61605;-63
2023/01/26 06:47:26;;;;;;;33.80;21.80;;;;;;;-0.27;100.00;100694.49;103922;1269;59714;-62
2023/01/26 06:49:53;;;;;;;33.50;20.10;;;;;;;-0.22;100.00;100691.83;103691;1264;72317;-63
2023/01/26 06:52:32;;;;;;;34.60;20.80;;;;;;;-0.18;100.00;100690.52;103993;1257;68567;-62
2023/01/26 06:55:04;;;;;;;30.90;19.40;;;;;;;-0.14;100.00;100691.27;104113;1259;72819;-62
2023/01/26 06:57:50;;;;;;;30.50;19.30;;;;;;;-0.06;100.00;100687.10;104262;1260;61024;-62
2023/01/26 07:00:41;;;;;;;33.10;20.00;;;;;;;0.02;100.00;100685.85;104250;1278;59747;-62
2023/01/26 07:03:17;;;;;;;30.00;19.20;;;;;;;0.05;100.00;100686.77;104303;1259;72253;-62
2023/01/26 07:05:44;;;;;;;31.60;19.60;;;;;;;0.05;100.00;100683.84;104234;1259;69741;-62
2023/01/26 07:08:12;;;;;;;31.30;19.20;;;;;;;0.03;100.00;100685.35;104247;1267;72061;-62
2023/01/26 07:10:38;;;;;;;30.90;20.20;;;;;;;0.03;100.00;100687.24;104318;1256;60184;-62
2023/01/26 07:13:06;;;;;;;29.90;19.60;;;;;;;0.07;100.00;100690.23;104271;1269;59464;-63
2023/01/26 07:15:33;;;;;;;27.80;19.20;;;;;;;0.13;100.00;100688.45;104318;1255;72362;-63
2023/01/26 07:18:01;;;;;;;29.90;19.10;;;;;;;0.18;100.00;100689.92;104380;1263;69555;-65
2023/01/26 07:20:28;;;;;;;27.00;17.30;;;;;;;0.19;100.00;100691.98;104312;1254;73586;-65
2023/01/26 07:22:55;;;;;;;26.40;17.30;;;;;;;0.18;100.00;100691.47;104241;1264;61522;-62
2023/01/26 07:25:22;;;;;;;24.80;16.30;;;;;;;0.20;100.00;100690.30;104285;1256;61476;-63
2023/01/26 07:27:54;;;;;;;26.40;17.70;;;;;;;0.28;100.00;100694.55;104380;1254;72297;-64
2023/01/26 07:30:22;;;;;;;24.40;17.10;;;;;;;0.35;100.00;100688.10;104374;1254;68598;-63
2023/01/26 07:32:49;;;;;;;27.50;16.70;;;;;;;0.36;100.00;100684.66;104249;1254;72193;-63
2023/01/26 07:35:16;;;;;;;20.00;12.50;;;;;;;0.36;100.00;100682.77;104211;1276;62907;-63
2023/01/26 07:37:42;;;;;;;25.70;15.60;;;;;;;0.37;100.00;100680.38;104193;1269;60371;-63
2023/01/26 07:40:10;;;;;;;21.50;14.60;;;;;;;0.44;100.00;100683.94;104153;1256;73343;-63
2023/01/26 07:42:38;;;;;;;20.80;15.30;;;;;;;0.46;100.00;100683.27;104355;1264;69232;-63
2023/01/26 07:45:17;;;;;;;20.90;14.00;;;;;;;0.47;100.00;100684.67;104310;1269;71892;-63
2023/01/26 07:47:44;;;;;;;20.80;13.00;;;;;;;0.46;100.00;100682.23;104184;1264;60602;-63
2023/01/26 07:50:12;;;;;;;20.40;12.90;;;;;;;0.48;100.00;100683.80;104355;1269;59625;-62
2023/01/26 07:52:39;;;;;;;17.40;11.90;;;;;;;0.53;100.00;100678.20;104294;1254;72340;-63
2023/01/26 07:55:06;;;;;;;17.30;10.70;;;;;;;0.55;100.00;100674.77;104236;1256;68743;-62
2023/01/26 07:57:35;;;;;;;16.40;10.40;;;;;;;0.53;100.00;100676.83;104262;1257;71775;-62
2023/01/26 08:00:03;;;;;;;14.30;10.40;;;;;;;0.52;100.00;100671.11;104445;1254;60672;-62
2023/01/26 08:02:38;;;;;;;13.60;9.30;;;;;;;0.57;100.00;100675.16;104331;1254;59854;-63
2023/01/26 08:05:08;;;;;;;15.40;10.70;;;;;;;0.65;100.00;100668.38;104298;1257;73040;-64
2023/01/26 08:07:34;;;;;;;15.30;10.40;;;;;;;0.71;100.00;100666.89;104335;1257;68841;-63
2023/01/26 08:10:01;;;;;;;14.90;10.30;;;;;;;0.75;100.00;100669.38;104350;1252;71722;-63
2023/01/26 08:12:29;;;;;;;12.20;9.20;;;;;;;0.78;100.00;100671.65;104263;1254;59682;-64
2023/01/26 08:14:56;;;;;;;14.50;10.00;;;;;;;0.81;100.00;100671.85;104227;1276;60203;-63
2023/01/26 08:17:23;;;;;;;14.90;9.60;;;;;;;0.85;100.00;100676.57;104398;1260;73483;-62
2023/01/26 08:19:50;;;;;;;16.00;9.90;;;;;;;0.91;100.00;100676.47;104265;1256;69046;-62
2023/01/26 15:16:15;;;;;;;17.20;11.10;;;;;;;1.26;100.00;100430.27;106664;1241;60375;-63
2023/01/26 15:18:42;;;;;;;18.00;11.60;;;;;;;1.30;100.00;100432.00;106167;1243;60245;-61
2023/01/26 15:21:16;;;;;;;20.40;12.00;;;;;;;1.31;100.00;100432.02;106008;1246;73968;-61
2023/01/26 15:23:44;;;;;;;22.10;12.70;;;;;;;1.26;100.00;100431.46;106254;1248;69824;-61
2023/01/26 15:26:14;;;;;;;18.50;12.00;;;;;;;1.24;100.00;100430.23;106310;1256;72793;-60
2023/01/26 15:28:41;;;;;;;18.40;11.50;;;;;;;1.22;100.00;100433.50;106025;1244;61159;-60
2023/01/26 15:31:08;;;;;;;15.40;10.70;;;;;;;1.26;100.00;100430.95;106085;1242;59765;-61
2023/01/26 15:33:52;;;;;;;18.00;11.10;;;;;;;1.31;100.00;100429.44;106607;1235;72569;-61
2023/01/26 15:36:42;;;;;;;19.60;12.10;;;;;;;1.27;100.00;100425.60;106325;1243;69869;-60
2023/01/26 15:39:17;;;;;;;18.10;12.30;;;;;;;1.24;100.00;100433.16;106725;1242;72939;-60
2023/01/26 15:41:45;;;;;;;14.30;10.40;;;;;;;1.21;100.00;100436.44;106723;1241;59726;-59
2023/01/26 15:44:20;;;;;;;18.40;11.20;;;;;;;1.18;100.00;100434.17;107022;1237;60079;-62
2023/01/26 15:46:47;;;;;;;18.00;11.40;;;;;;;1.20;100.00;100438.14;106553;1250;72237;-59
2023/01/26 15:49:17;;;;;;;18.80;13.00;;;;;;;1.27;100.00;100441.14;107206;1239;69462;-60
2023/01/26 15:51:44;;;;;;;17.60;11.80;;;;;;;1.29;100.00;100434.24;107095;1238;71811;-59
2023/01/26 15:54:11;;;;;;;17.80;11.40;;;;;;;1.25;100.00;100433.70;106737;1238;60280;-59
2023/01/26 15:56:38;;;;;;;14.30;10.00;;;;;;;1.20;100.00;100433.14;106698;1239;59622;-59
2023/01/26 15:59:06;;;;;;;16.30;11.40;;;;;;;1.17;100.00;100431.91;106984;1238;72617;-59
2023/01/26 16:01:33;;;;;;;18.80;11.20;;;;;;;1.20;100.00;100431.24;106920;1239;68749;-59
2023/01/26 16:04:00;;;;;;;;;;;;;;;1.24;100.00;100429.38;106578;1239;72777;-60
2023/01/26 16:06:29;;;;;;;19.10;11.80;;;;;;;1.21;100.00;100432.98;107108;1238;59706;-59
2023/01/26 16:08:57;;;;;;;13.50;9.50;;;;;;;1.24;100.00;100431.27;107002;1238;59706;-59
2023/01/26 16:11:30;;;;;;;14.30;9.60;;;;;;;1.26;100.00;100431.64;106844;1235;73504;-59
2023/01/26 16:13:57;;;;;;;18.50;11.10;;;;;;;1.28;100.00;100434.42;106379;1249;69249;-63
2023/01/26 16:16:31;;;;;;;17.70;11.30;;;;;;;1.31;100.00;100433.56;106707;1239;72238;-61
2023/01/26 16:18:58;;;;;;;;;;;;;;;1.39;100.00;100435.19;106571;1242;59619;-60
2023/01/26 16:21:31;;;;;;;17.70;10.90;;;;;;;1.34;100.00;100427.90;106629;1238;59739;-61
2023/01/26 16:23:59;;;;;;;16.00;9.70;;;;;;;1.35;100.00;100430.67;106692;1244;72959;-61
2023/01/26 16:26:27;;;;;;;17.10;10.20;;;;;;;1.34;100.00;100432.20;106711;1238;70784;-60
2023/01/26 16:28:54;;;;;;;18.10;11.10;;;;;;;1.32;100.00;100432.71;106747;1235;72758;-61
2023/01/26 16:31:23;;;;;;;18.20;9.90;;;;;;;1.34;100.00;100435.85;106832;1246;60545;-61
2023/01/26 16:33:52;;;;;;;18.60;11.20;;;;;;;1.40;100.00;100433.13;106692;1238;60354;-60
2023/01/26 16:36:19;;;;;;;18.00;11.40;;;;;;;1.41;100.00;100430.70;106925;1235;73227;-58
2023/01/26 16:38:46;;;;;;;17.50;10.40;;;;;;;1.38;100.00;100430.52;106771;1238;70462;-59
2023/01/26 16:41:22;;;;;;;18.20;10.60;;;;;;;1.31;100.00;100424.60;106896;1235;71984;-61
2023/01/26 16:43:49;;;;;;;19.60;11.90;;;;;;;1.25;100.00;100428.35;107393;1238;60675;-60
2023/01/26 16:46:16;;;;;;;20.80;11.30;;;;;;;1.25;100.00;100432.84;106767;1234;60177;-61
2023/01/26 16:48:43;;;;;;;17.70;11.90;;;;;;;1.29;100.00;100433.73;107084;1240;72925;-60
2023/01/26 16:51:24;;;;;;;18.40;11.70;;;;;;;1.36;100.00;100431.37;106702;1237;69926;-60
2023/01/26 16:53:52;;;;;;;17.80;11.20;;;;;;;1.36;100.00;100426.87;107125;1239;72000;-60
2023/01/26 16:56:19;;;;;;;16.30;11.20;;;;;;;1.35;100.00;100426.86;106970;1235;59656;-61
2023/01/26 16:58:46;;;;;;;17.60;10.90;;;;;;;1.34;100.00;100425.99;106726;1238;60297;-61
2023/01/26 17:01:17;;;;;;;17.10;11.50;;;;;;;1.29;100.00;100423.90;106455;1234;72498;-61
2023/01/26 17:03:44;;;;;;;16.50;10.70;;;;;;;1.35;100.00;100421.86;106797;1238;68578;-59
2023/01/26 17:06:11;;;;;;;18.10;11.40;;;;;;;1.41;100.00;100421.04;106692;1238;72758;-60
2023/01/26 17:08:38;;;;;;;18.70;11.70;;;;;;;1.42;100.00;100420.00;106656;1238;59591;-61
2023/01/26 17:11:13;;;;;;;20.20;11.60;;;;;;;1.44;100.00;100425.20;106653;1238;59810;-61
2023/01/26 17:13:40;;;;;;;16.60;10.40;;;;;;;1.46;100.00;100428.16;106350;1249;72801;-59
2023/01/26 17:16:19;;;;;;;19.60;11.70;;;;;;;1.37;100.00;100431.02;106704;1240;69734;-59
2023/01/26 17:18:47;;;;;;;19.20;11.40;;;;;;;1.37;100.00;100431.73;106707;1249;72542;-61
2023/01/26 17:21:15;;;;;;;19.00;11.20;;;;;;;1.45;100.00;100434.36;106615;1249;59775;-61
2023/01/26 17:23:52;;;;;;;18.20;11.80;;;;;;;1.47;100.00;100433.17;106614;1238;60108;-59
2023/01/26 17:26:20;;;;;;;21.90;12.50;;;;;;;1.45;100.00;100432.12;106760;1238;73120;-59
2023/01/26 17:28:48;;;;;;;19.00;12.80;;;;;;;1.44;100.00;100432.12;106658;1249;70205;-59
2023/01/26 17:31:16;;;;;;;22.90;13.50;;;;;;;1.43;100.00;100428.13;106771;1239;72151;-60
2023/01/26 17:33:48;;;;;;;18.50;12.80;;;;;;;1.45;100.00;100435.06;106820;1238;60883;-59
2023/01/26 17:36:15;;;;;;;23.20;13.40;;;;;;;1.47;100.00;100428.67;106768;1239;60057;-60
2023/01/26 17:38:42;;;;;;;18.20;11.50;;;;;;;1.49;100.00;100428.17;106764;1238;73545;-60
2023/01/26 17:41:09;;;;;;;20.00;12.10;;;;;;;1.48;100.00;100428.17;106607;1238;69241;-59
2023/01/26 17:43:36;;;;;;;17.60;10.80;;;;;;;1.46;100.00;100430.05;106746;1238;72626;-58
2023/01/26 17:46:10;;;;;;;24.20;12.90;;;;;;;1.43;100.00;100429.34;106671;1250;60814;-60
2023/01/26 22:20:20;;;;;;;8.20;5.70;;;;;;;-1.43;100.00;100318.73;102067;1293;601981;-61
2023/01/26 22:22:48;;;;;;;15.70;9.20;;;;;;;-0.72;100.00;100325.01;103714;1267;61817;-60
2023/01/26 22:25:17;;;;;;;16.10;10.00;;;;;;;-0.44;100.00;100320.90;103617;1285;59844;-61
2023/01/26 22:27:45;;;;;;;22.60;13.20;;;;;;;-0.24;100.00;100319.41;103645;1268;71481;-62
2023/01/26 22:30:14;;;;;;;21.10;12.80;;;;;;;-0.07;100.00;100314.63;103711;1271;68760;-60
2023/01/26 22:32:42;;;;;;;21.00;12.80;;;;;;;0.07;100.00;100313.38;103958;1264;71892;-60
2023/01/26 22:35:11;;;;;;;21.90;13.10;;;;;;;0.20;100.00;100309.90;104146;1258;60899;-60
2023/01/26 22:37:40;;;;;;;19.40;12.80;;;;;;;0.32;100.00;100305.71;104392;1261;59839;-60
2023/01/26 22:40:09;;;;;;;21.10;13.10;;;;;;;0.42;100.00;100304.93;104375;1260;71965;-60
2023/01/26 22:42:38;;;;;;;23.80;14.50;;;;;;;0.50;100.00;100302.23;104222;1258;69428;-60
2023/01/26 22:45:08;;;;;;;18.60;13.60;;;;;;;0.56;100.00;100301.25;104191;1260;72003;-60
2023/01/26 22:47:37;;;;;;;18.40;13.00;;;;;;;0.62;100.00;100298.37;104236;1263;59924;-60
2023/01/26 22:50:06;;;;;;;18.30;12.90;;;;;;;0.69;100.00;100293.43;104264;1270;59752;-60
2023/01/26 22:52:35;;;;;;;18.50;12.80;;;;;;;0.74;100.00;100299.85;104433;1270;72792;-60
2023/01/26 22:55:04;;;;;;;18.60;12.30;;;;;;;0.85;100.00;100299.42;104326;1258;69787;-60
2023/01/26 22:57:33;;;;;;;21.40;14.00;;;;;;;0.92;100.00;100296.02;104270;1267;72030;-60
2023/01/26 23:00:01;;;;;;;20.40;13.10;;;;;;;0.97;100.00;100296.05;104213;1260;60222;-61
2023/01/26 23:06:34;;;;;;;21.60;13.10;;;;;;;1.02;100.00;100295.90;104345;1262;72143;-62
2023/01/26 23:09:04;;;;;;;17.70;12.80;;;;;;;1.12;100.00;100291.65;104119;1265;70410;-60
2023/01/26 23:11:32;;;;;;;19.70;13.60;;;;;;;1.19;100.00;100288.93;103882;1263;72035;-60
2023/01/26 23:14:01;;;;;;;18.40;13.40;;;;;;;1.23;100.00;100285.14;103852;1267;59668;-60
2023/01/26 23:16:29;;;;;;;16.60;11.70;;;;;;;1.23;100.00;100283.59;103912;1267;59669;-60
2023/01/26 23:18:58;;;;;;;21.00;13.40;;;;;;;1.20;100.00;100285.48;103912;1271;72099;-60
2023/01/26 23:21:27;;;;;;;19.50;13.50;;;;;;;1.18;100.00;100284.44;103894;1278;69484;-61
2023/01/26 23:23:56;;;;;;;19.20;12.80;;;;;;;1.18;100.00;100279.77;104060;1267;71673;-61
2023/01/26 23:26:24;;;;;;;21.80;13.60;;;;;;;1.19;100.00;100277.87;103900;1272;60106;-61
2023/01/26 23:28:53;;;;;;;21.00;14.20;;;;;;;1.22;100.00;100283.77;103880;1276;60622;-60
2023/01/26 23:31:21;;;;;;;19.90;12.90;;;;;;;1.26;100.00;100279.64;103920;1279;71939;-60
2023/01/26 23:33:50;;;;;;;18.50;12.80;;;;;;;1.28;100.00;100274.65;103724;1263;68239;-60
2023/01/26 23:36:19;;;;;;;19.50;12.70;;;;;;;1.28;100.00;100275.85;103911;1279;72118;-60
2023/01/26 23:38:48;;;;;;;19.30;13.90;;;;;;;1.26;100.00;100278.61;103951;1272;60115;-61
2023/01/26 23:41:16;;;;;;;18.90;13.10;;;;;;;1.26;100.00;100272.38;103865;1266;60206;-60
2023/01/26 23:43:45;;;;;;;21.00;13.60;;;;;;;1.28;100.00;100272.73;103898;1267;72356;-61
2023/01/26 23:46:14;;;;;;;18.90;12.30;;;;;;;1.33;100.00;100274.50;103978;1268;68391;-61
2023/01/26 23:48:42;;;;;;;18.40;12.40;;;;;;;1.34;100.00;100277.26;103900;1265;71801;-61
2023/01/26 23:51:11;;;;;;;18.40;11.90;;;;;;;1.32;100.00;100276.22;103928;1265;59639;-60
